sensor_id;sensor_type;location;lat;lon;timestamp;P1;durP1;ratioP1;P2;durP2;ratioP2
76228;SDS011;65021;53.174;18.160;2023-03-14T00:00:08;7.50;;;3.60;;
76228;SDS011;65021;53.174;18.160;2023-03-14T00:03:00;8.40;;;3.30;;
76228;SDS011;65021;53.174;18.160;2023-03-14T00:05:26;8.50;;;3.50;;
76228;SDS011;65021;53.174;18.160;2023-03-14T00:07:53;8.40;;;3.80;;
76228;SDS011;65021;53.174;18.160;2023-03-14T00:10:20;10.90;;;4.20;;
76228;SDS011;65021;53.174;18.160;2023-03-14T00:12:46;7.30;;;3.60;;
76228;SDS011;65021;53.174;18.160;2023-03-14T00:15:13;9.20;;;3.50;;
76228;SDS011;65021;53.174;18.160;2023-03-14T00:17:40;7.70;;;3.60;;
76228;SDS011;65021;53.174;18.160;2023-03-14T00:20:09;6.60;;;3.00;;
76228;SDS011;65021;53.174;18.160;2023-03-14T00:22:37;7.60;;;3.10;;
76228;SDS011;65021;53.174;18.160;2023-03-14T00:25:05;8.50;;;3.70;;
76228;SDS011;65021;53.174;18.160;2023-03-14T00:27:33;7.70;;;3.10;;
76228;SDS011;65021;53.174;18.160;2023-03-14T00:30:00;9.10;;;3.80;;
76228;SDS011;65021;53.174;18.160;2023-03-14T00:32:27;6.80;;;3.20;;
76228;SDS011;65021;53.174;18.160;2023-03-14T00:34:53;7.50;;;3.40;;
76228;SDS011;65021;53.174;18.160;2023-03-14T00:37:20;7.10;;;3.60;;
76228;SDS011;65021;53.174;18.160;2023-03-14T00:39:46;6.80;;;3.00;;
76228;SDS011;65021;53.174;18.160;2023-03-14T00:42:13;7.60;;;3.80;;
76228;SDS011;65021;53.174;18.160;2023-03-14T00:44:40;10.30;;;3.90;;
76228;SDS011;65021;53.174;18.160;2023-03-14T00:47:07;8.40;;;3.90;;
76228;SDS011;65021;53.174;18.160;2023-03-14T00:49:33;7.20;;;3.80;;
76228;SDS011;65021;53.174;18.160;2023-03-14T00:52:00;10.40;;;3.50;;
76228;SDS011;65021;53.174;18.160;2023-03-14T00:54:27;6.30;;;3.30;;
76228;SDS011;65021;53.174;18.160;2023-03-14T00:56:53;9.40;;;4.00;;
76228;SDS011;65021;53.174;18.160;2023-03-14T00:59:20;8.80;;;3.50;;
76228;SDS011;65021;53.174;18.160;2023-03-14T01:01:46;7.00;;;2.70;;
76228;SDS011;65021;53.174;18.160;2023-03-14T01:04:13;8.00;;;3.00;;
76228;SDS011;65021;53.174;18.160;2023-03-14T01:06:39;5.60;;;2.60;;
76228;SDS011;65021;53.174;18.160;2023-03-14T01:09:06;6.10;;;2.80;;
76228;SDS011;65021;53.174;18.160;2023-03-14T01:11:34;6.80;;;2.50;;
76228;SDS011;65021;53.174;18.160;2023-03-14T01:14:01;7.00;;;2.60;;
76228;SDS011;65021;53.174;18.160;2023-03-14T01:16:30;5.90;;;2.60;;
76228;SDS011;65021;53.174;18.160;2023-03-14T01:18:59;8.60;;;2.00;;
76228;SDS011;65021;53.174;18.160;2023-03-14T01:21:33;4.40;;;1.90;;
76228;SDS011;65021;53.174;18.160;2023-03-14T01:24:01;6.60;;;1.90;;
76228;SDS011;65021;53.174;18.160;2023-03-14T01:26:31;5.40;;;2.10;;
76228;SDS011;65021;53.174;18.160;2023-03-14T01:28:59;4.60;;;1.70;;
76228;SDS011;65021;53.174;18.160;2023-03-14T01:31:26;6.90;;;2.30;;
76228;SDS011;65021;53.174;18.160;2023-03-14T01:33:53;6.90;;;2.40;;
76228;SDS011;65021;53.174;18.160;2023-03-14T01:36:20;4.90;;;1.60;;
76228;SDS011;65021;53.174;18.160;2023-03-14T01:38:47;6.60;;;2.20;;
76228;SDS011;65021;53.174;18.160;2023-03-14T01:41:15;4.40;;;1.60;;
76228;SDS011;65021;53.174;18.160;2023-03-14T01:43:43;6.30;;;2.00;;
76228;SDS011;65021;53.174;18.160;2023-03-14T01:46:20;3.80;;;2.10;;
76228;SDS011;65021;53.174;18.160;2023-03-14T01:57:12;5.80;;;1.70;;
76228;SDS011;65021;53.174;18.160;2023-03-14T01:59:46;4.90;;;1.40;;
76228;SDS011;65021;53.174;18.160;2023-03-14T02:02:18;4.10;;;1.70;;
76228;SDS011;65021;53.174;18.160;2023-03-14T02:04:46;4.50;;;1.60;;
76228;SDS011;65021;53.174;18.160;2023-03-14T02:07:17;5.00;;;1.60;;
76228;SDS011;65021;53.174;18.160;2023-03-14T02:09:48;4.50;;;1.70;;
76228;SDS011;65021;53.174;18.160;2023-03-14T02:12:16;5.00;;;1.70;;
76228;SDS011;65021;53.174;18.160;2023-03-14T02:14:44;3.50;;;1.30;;
76228;SDS011;65021;53.174;18.160;2023-03-14T02:17:14;5.90;;;1.80;;
76228;SDS011;65021;53.174;18.160;2023-03-14T02:22:24;4.10;;;1.70;;
76228;SDS011;65021;53.174;18.160;2023-03-14T02:27:29;4.90;;;1.50;;
76228;SDS011;65021;53.174;18.160;2023-03-14T02:29:59;4.70;;;1.70;;
76228;SDS011;65021;53.174;18.160;2023-03-14T02:32:29;2.90;;;1.40;;
76228;SDS011;65021;53.174;18.160;2023-03-14T02:34:58;4.80;;;1.70;;
76228;SDS011;65021;53.174;18.160;2023-03-14T02:40:29;5.60;;;1.60;;
76228;SDS011;65021;53.174;18.160;2023-03-14T02:42:55;4.20;;;1.60;;
76228;SDS011;65021;53.174;18.160;2023-03-14T02:47:49;4.90;;;1.80;;
76228;SDS011;65021;53.174;18.160;2023-03-14T02:50:22;3.60;;;1.30;;
76228;SDS011;65021;53.174;18.160;2023-03-14T02:52:51;3.90;;;1.30;;
76228;SDS011;65021;53.174;18.160;2023-03-14T02:55:21;3.00;;;1.10;;
76228;SDS011;65021;53.174;18.160;2023-03-14T02:57:49;3.10;;;1.40;;
76228;SDS011;65021;53.174;18.160;2023-03-14T03:00:16;4.10;;;1.30;;
76228;SDS011;65021;53.174;18.160;2023-03-14T03:02:43;4.60;;;1.50;;
76228;SDS011;65021;53.174;18.160;2023-03-14T03:05:09;3.60;;;1.40;;
76228;SDS011;65021;53.174;18.160;2023-03-14T03:07:36;5.40;;;1.20;;
76228;SDS011;65021;53.174;18.160;2023-03-14T03:10:03;2.70;;;1.10;;
76228;SDS011;65021;53.174;18.160;2023-03-14T03:12:30;3.00;;;1.20;;
76228;SDS011;65021;53.174;18.160;2023-03-14T03:14:57;3.80;;;1.30;;
76228;SDS011;65021;53.174;18.160;2023-03-14T03:17:23;2.30;;;0.80;;
76228;SDS011;65021;53.174;18.160;2023-03-14T03:19:50;4.30;;;1.30;;
76228;SDS011;65021;53.174;18.160;2023-03-14T03:22:16;3.20;;;1.10;;
76228;SDS011;65021;53.174;18.160;2023-03-14T03:24:43;2.60;;;0.90;;
76228;SDS011;65021;53.174;18.160;2023-03-14T03:27:10;2.60;;;1.00;;
76228;SDS011;65021;53.174;18.160;2023-03-14T03:29:37;1.70;;;0.80;;
76228;SDS011;65021;53.174;18.160;2023-03-14T03:32:03;3.70;;;1.20;;
76228;SDS011;65021;53.174;18.160;2023-03-14T03:34:30;3.00;;;1.10;;
76228;SDS011;65021;53.174;18.160;2023-03-14T03:36:57;3.00;;;0.90;;
76228;SDS011;65021;53.174;18.160;2023-03-14T03:39:24;3.20;;;1.00;;
76228;SDS011;65021;53.174;18.160;2023-03-14T03:41:50;2.70;;;1.10;;
76228;SDS011;65021;53.174;18.160;2023-03-14T03:44:17;4.30;;;1.00;;
76228;SDS011;65021;53.174;18.160;2023-03-14T03:46:44;3.20;;;1.00;;
76228;SDS011;65021;53.174;18.160;2023-03-14T03:49:10;2.80;;;1.10;;
76228;SDS011;65021;53.174;18.160;2023-03-14T03:51:37;2.80;;;0.90;;
76228;SDS011;65021;53.174;18.160;2023-03-14T03:54:04;2.40;;;0.90;;
76228;SDS011;65021;53.174;18.160;2023-03-14T03:56:30;2.90;;;0.90;;
76228;SDS011;65021;53.174;18.160;2023-03-14T03:58:57;3.50;;;0.80;;
76228;SDS011;65021;53.174;18.160;2023-03-14T04:01:24;2.70;;;0.90;;
76228;SDS011;65021;53.174;18.160;2023-03-14T04:03:51;3.50;;;1.10;;
76228;SDS011;65021;53.174;18.160;2023-03-14T04:06:17;2.80;;;1.00;;
76228;SDS011;65021;53.174;18.160;2023-03-14T04:08:44;5.30;;;1.20;;
76228;SDS011;65021;53.174;18.160;2023-03-14T04:11:10;2.80;;;1.00;;
76228;SDS011;65021;53.174;18.160;2023-03-14T04:13:37;2.70;;;1.10;;
76228;SDS011;65021;53.174;18.160;2023-03-14T04:16:08;3.80;;;1.30;;
76228;SDS011;65021;53.174;18.160;2023-03-14T04:18:40;2.80;;;1.10;;
76228;SDS011;65021;53.174;18.160;2023-03-14T04:21:06;6.50;;;1.30;;
76228;SDS011;65021;53.174;18.160;2023-03-14T04:23:33;3.70;;;1.40;;
76228;SDS011;65021;53.174;18.160;2023-03-14T04:26:00;4.50;;;1.30;;
76228;SDS011;65021;53.174;18.160;2023-03-14T04:28:27;2.60;;;1.00;;
76228;SDS011;65021;53.174;18.160;2023-03-14T04:30:53;2.70;;;0.90;;
76228;SDS011;65021;53.174;18.160;2023-03-14T04:33:20;3.50;;;1.20;;
76228;SDS011;65021;53.174;18.160;2023-03-14T04:35:46;3.00;;;0.90;;
76228;SDS011;65021;53.174;18.160;2023-03-14T04:38:13;4.70;;;1.30;;
76228;SDS011;65021;53.174;18.160;2023-03-14T04:40:40;3.30;;;1.30;;
76228;SDS011;65021;53.174;18.160;2023-03-14T04:43:07;3.10;;;1.10;;
76228;SDS011;65021;53.174;18.160;2023-03-14T04:45:36;3.10;;;1.30;;
76228;SDS011;65021;53.174;18.160;2023-03-14T04:48:02;5.50;;;1.60;;
76228;SDS011;65021;53.174;18.160;2023-03-14T04:50:29;4.90;;;1.30;;
76228;SDS011;65021;53.174;18.160;2023-03-14T04:52:55;8.60;;;2.10;;
76228;SDS011;65021;53.174;18.160;2023-03-14T04:55:22;6.20;;;2.10;;
76228;SDS011;65021;53.174;18.160;2023-03-14T04:57:48;4.30;;;1.70;;
76228;SDS011;65021;53.174;18.160;2023-03-14T05:00:15;3.80;;;1.40;;
76228;SDS011;65021;53.174;18.160;2023-03-14T05:02:44;5.90;;;1.40;;
76228;SDS011;65021;53.174;18.160;2023-03-14T05:05:11;3.50;;;1.30;;
76228;SDS011;65021;53.174;18.160;2023-03-14T05:07:38;5.20;;;1.80;;
76228;SDS011;65021;53.174;18.160;2023-03-14T05:10:04;3.70;;;1.50;;
76228;SDS011;65021;53.174;18.160;2023-03-14T05:12:31;3.90;;;1.60;;
76228;SDS011;65021;53.174;18.160;2023-03-14T05:14:58;3.50;;;1.50;;
76228;SDS011;65021;53.174;18.160;2023-03-14T05:17:24;3.80;;;1.60;;
76228;SDS011;65021;53.174;18.160;2023-03-14T05:19:51;3.80;;;1.70;;
76228;SDS011;65021;53.174;18.160;2023-03-14T05:22:18;3.80;;;1.60;;
76228;SDS011;65021;53.174;18.160;2023-03-14T05:24:44;5.20;;;2.50;;
76228;SDS011;65021;53.174;18.160;2023-03-14T05:27:11;6.70;;;3.10;;
76228;SDS011;65021;53.174;18.160;2023-03-14T05:29:37;5.90;;;3.00;;
76228;SDS011;65021;53.174;18.160;2023-03-14T05:32:04;6.80;;;3.00;;
76228;SDS011;65021;53.174;18.160;2023-03-14T05:34:30;6.00;;;3.10;;
76228;SDS011;65021;53.174;18.160;2023-03-14T05:36:57;5.60;;;3.50;;
76228;SDS011;65021;53.174;18.160;2023-03-14T05:39:24;7.00;;;3.30;;
76228;SDS011;65021;53.174;18.160;2023-03-14T05:41:50;6.60;;;2.40;;
76228;SDS011;65021;53.174;18.160;2023-03-14T05:44:17;5.30;;;3.10;;
76228;SDS011;65021;53.174;18.160;2023-03-14T05:46:44;5.80;;;3.20;;
76228;SDS011;65021;53.174;18.160;2023-03-14T05:49:10;6.00;;;2.90;;
76228;SDS011;65021;53.174;18.160;2023-03-14T05:51:37;5.00;;;2.70;;
76228;SDS011;65021;53.174;18.160;2023-03-14T05:54:03;5.40;;;2.50;;
76228;SDS011;65021;53.174;18.160;2023-03-14T05:56:30;7.80;;;3.10;;
76228;SDS011;65021;53.174;18.160;2023-03-14T05:58:56;7.60;;;3.50;;
76228;SDS011;65021;53.174;18.160;2023-03-14T06:01:23;7.80;;;4.20;;
76228;SDS011;65021;53.174;18.160;2023-03-14T06:03:50;8.40;;;4.90;;
76228;SDS011;65021;53.174;18.160;2023-03-14T06:06:16;7.20;;;3.80;;
76228;SDS011;65021;53.174;18.160;2023-03-14T06:08:43;7.40;;;3.30;;
76228;SDS011;65021;53.174;18.160;2023-03-14T06:11:09;6.60;;;2.70;;
76228;SDS011;65021;53.174;18.160;2023-03-14T06:13:36;11.70;;;5.00;;
76228;SDS011;65021;53.174;18.160;2023-03-14T06:16:03;5.70;;;2.80;;
76228;SDS011;65021;53.174;18.160;2023-03-14T06:18:30;6.30;;;2.60;;
76228;SDS011;65021;53.174;18.160;2023-03-14T06:20:56;5.50;;;2.90;;
76228;SDS011;65021;53.174;18.160;2023-03-14T06:23:23;4.80;;;2.20;;
76228;SDS011;65021;53.174;18.160;2023-03-14T06:25:50;6.10;;;2.20;;
76228;SDS011;65021;53.174;18.160;2023-03-14T06:28:17;4.80;;;2.10;;
76228;SDS011;65021;53.174;18.160;2023-03-14T06:30:44;6.90;;;2.70;;
76228;SDS011;65021;53.174;18.160;2023-03-14T06:33:10;8.00;;;2.90;;
76228;SDS011;65021;53.174;18.160;2023-03-14T06:35:37;6.00;;;2.10;;
76228;SDS011;65021;53.174;18.160;2023-03-14T06:38:03;7.60;;;2.70;;
76228;SDS011;65021;53.174;18.160;2023-03-14T06:40:30;6.00;;;2.00;;
76228;SDS011;65021;53.174;18.160;2023-03-14T06:42:57;5.50;;;2.10;;
76228;SDS011;65021;53.174;18.160;2023-03-14T06:45:23;5.60;;;2.30;;
76228;SDS011;65021;53.174;18.160;2023-03-14T06:47:50;6.50;;;1.80;;
76228;SDS011;65021;53.174;18.160;2023-03-14T06:50:16;4.90;;;2.20;;
76228;SDS011;65021;53.174;18.160;2023-03-14T06:52:43;5.70;;;2.30;;
76228;SDS011;65021;53.174;18.160;2023-03-14T06:55:14;3.40;;;1.50;;
76228;SDS011;65021;53.174;18.160;2023-03-14T06:57:41;5.80;;;2.30;;
76228;SDS011;65021;53.174;18.160;2023-03-14T07:00:08;4.40;;;1.90;;
76228;SDS011;65021;53.174;18.160;2023-03-14T07:02:35;6.40;;;2.20;;
76228;SDS011;65021;53.174;18.160;2023-03-14T07:05:02;4.80;;;2.00;;
76228;SDS011;65021;53.174;18.160;2023-03-14T07:07:28;4.60;;;2.00;;
76228;SDS011;65021;53.174;18.160;2023-03-14T07:09:55;5.10;;;2.20;;
76228;SDS011;65021;53.174;18.160;2023-03-14T07:12:21;4.20;;;1.80;;
76228;SDS011;65021;53.174;18.160;2023-03-14T07:14:49;8.70;;;2.30;;
76228;SDS011;65021;53.174;18.160;2023-03-14T07:17:16;4.70;;;2.20;;
76228;SDS011;65021;53.174;18.160;2023-03-14T07:19:42;5.70;;;2.10;;
76228;SDS011;65021;53.174;18.160;2023-03-14T07:22:09;6.80;;;2.80;;
76228;SDS011;65021;53.174;18.160;2023-03-14T07:24:35;7.60;;;2.30;;
76228;SDS011;65021;53.174;18.160;2023-03-14T07:27:02;8.70;;;3.60;;
76228;SDS011;65021;53.174;18.160;2023-03-14T07:29:29;7.20;;;2.70;;
76228;SDS011;65021;53.174;18.160;2023-03-14T07:31:55;7.00;;;2.40;;
76228;SDS011;65021;53.174;18.160;2023-03-14T07:34:22;5.70;;;2.30;;
76228;SDS011;65021;53.174;18.160;2023-03-14T07:36:48;5.80;;;2.10;;
76228;SDS011;65021;53.174;18.160;2023-03-14T07:39:15;7.00;;;2.70;;
76228;SDS011;65021;53.174;18.160;2023-03-14T07:41:41;6.90;;;3.00;;
76228;SDS011;65021;53.174;18.160;2023-03-14T07:44:08;6.20;;;2.50;;
76228;SDS011;65021;53.174;18.160;2023-03-14T07:46:34;6.30;;;2.80;;
76228;SDS011;65021;53.174;18.160;2023-03-14T07:49:01;6.10;;;2.60;;
76228;SDS011;65021;53.174;18.160;2023-03-14T07:51:27;6.50;;;2.60;;
76228;SDS011;65021;53.174;18.160;2023-03-14T07:53:54;5.60;;;2.70;;
76228;SDS011;65021;53.174;18.160;2023-03-14T07:56:20;5.60;;;2.40;;
76228;SDS011;65021;53.174;18.160;2023-03-14T07:58:47;6.20;;;2.60;;
76228;SDS011;65021;53.174;18.160;2023-03-14T08:01:13;6.00;;;2.30;;
76228;SDS011;65021;53.174;18.160;2023-03-14T08:03:40;6.30;;;2.60;;
76228;SDS011;65021;53.174;18.160;2023-03-14T08:06:07;7.50;;;2.80;;
76228;SDS011;65021;53.174;18.160;2023-03-14T08:08:33;5.80;;;2.60;;
76228;SDS011;65021;53.174;18.160;2023-03-14T08:11:04;5.50;;;2.60;;
76228;SDS011;65021;53.174;18.160;2023-03-14T08:13:31;7.30;;;2.50;;
76228;SDS011;65021;53.174;18.160;2023-03-14T08:15:58;5.80;;;2.20;;
76228;SDS011;65021;53.174;18.160;2023-03-14T08:18:25;7.70;;;2.90;;
76228;SDS011;65021;53.174;18.160;2023-03-14T08:20:51;7.00;;;2.00;;
76228;SDS011;65021;53.174;18.160;2023-03-14T08:23:18;5.20;;;2.30;;
76228;SDS011;65021;53.174;18.160;2023-03-14T08:25:44;5.40;;;2.20;;
76228;SDS011;65021;53.174;18.160;2023-03-14T08:28:11;5.60;;;2.80;;
76228;SDS011;65021;53.174;18.160;2023-03-14T08:30:37;5.30;;;2.00;;
76228;SDS011;65021;53.174;18.160;2023-03-14T08:33:04;6.00;;;2.30;;
76228;SDS011;65021;53.174;18.160;2023-03-14T08:35:30;5.20;;;2.20;;
76228;SDS011;65021;53.174;18.160;2023-03-14T08:37:57;5.30;;;2.40;;
76228;SDS011;65021;53.174;18.160;2023-03-14T08:40:23;4.10;;;1.80;;
76228;SDS011;65021;53.174;18.160;2023-03-14T08:42:50;6.00;;;2.60;;
76228;SDS011;65021;53.174;18.160;2023-03-14T08:45:16;4.80;;;1.80;;
76228;SDS011;65021;53.174;18.160;2023-03-14T08:47:44;4.90;;;1.90;;
76228;SDS011;65021;53.174;18.160;2023-03-14T08:50:11;4.80;;;2.00;;
76228;SDS011;65021;53.174;18.160;2023-03-14T08:52:39;6.30;;;2.10;;
76228;SDS011;65021;53.174;18.160;2023-03-14T08:55:07;5.20;;;1.70;;
76228;SDS011;65021;53.174;18.160;2023-03-14T08:57:35;5.20;;;1.70;;
76228;SDS011;65021;53.174;18.160;2023-03-14T09:00:03;3.80;;;1.70;;
76228;SDS011;65021;53.174;18.160;2023-03-14T09:02:37;5.10;;;2.30;;
76228;SDS011;65021;53.174;18.160;2023-03-14T09:05:04;4.70;;;2.10;;
76228;SDS011;65021;53.174;18.160;2023-03-14T09:07:31;3.60;;;1.40;;
76228;SDS011;65021;53.174;18.160;2023-03-14T09:09:58;4.70;;;1.90;;
76228;SDS011;65021;53.174;18.160;2023-03-14T09:12:24;5.80;;;2.30;;
76228;SDS011;65021;53.174;18.160;2023-03-14T09:14:51;4.50;;;1.90;;
76228;SDS011;65021;53.174;18.160;2023-03-14T09:17:17;4.90;;;2.00;;
76228;SDS011;65021;53.174;18.160;2023-03-14T09:19:44;3.50;;;1.50;;
76228;SDS011;65021;53.174;18.160;2023-03-14T09:22:10;5.00;;;1.90;;
76228;SDS011;65021;53.174;18.160;2023-03-14T09:24:37;6.90;;;1.90;;
76228;SDS011;65021;53.174;18.160;2023-03-14T09:27:03;5.30;;;1.90;;
76228;SDS011;65021;53.174;18.160;2023-03-14T09:29:30;4.60;;;1.90;;
76228;SDS011;65021;53.174;18.160;2023-03-14T09:31:57;5.90;;;1.90;;
76228;SDS011;65021;53.174;18.160;2023-03-14T09:34:24;4.90;;;1.80;;
76228;SDS011;65021;53.174;18.160;2023-03-14T09:36:51;5.90;;;1.40;;
76228;SDS011;65021;53.174;18.160;2023-03-14T09:39:18;4.90;;;1.80;;
76228;SDS011;65021;53.174;18.160;2023-03-14T09:41:45;5.70;;;1.90;;
76228;SDS011;65021;53.174;18.160;2023-03-14T09:46:45;4.40;;;1.50;;
76228;SDS011;65021;53.174;18.160;2023-03-14T09:49:28;5.50;;;2.00;;
76228;SDS011;65021;53.174;18.160;2023-03-14T09:51:58;4.00;;;1.60;;
76228;SDS011;65021;53.174;18.160;2023-03-14T09:57:00;4.80;;;1.70;;
76228;SDS011;65021;53.174;18.160;2023-03-14T09:59:29;4.60;;;1.60;;
76228;SDS011;65021;53.174;18.160;2023-03-14T10:02:18;3.70;;;1.40;;
76228;SDS011;65021;53.174;18.160;2023-03-14T10:04:49;6.50;;;1.70;;
76228;SDS011;65021;53.174;18.160;2023-03-14T10:07:18;3.30;;;1.30;;
76228;SDS011;65021;53.174;18.160;2023-03-14T10:09:56;4.00;;;1.90;;
76228;SDS011;65021;53.174;18.160;2023-03-14T10:12:33;4.30;;;1.30;;
76228;SDS011;65021;53.174;18.160;2023-03-14T10:15:03;3.70;;;1.20;;
76228;SDS011;65021;53.174;18.160;2023-03-14T10:17:37;3.50;;;1.10;;
76228;SDS011;65021;53.174;18.160;2023-03-14T10:20:06;5.40;;;1.60;;
76228;SDS011;65021;53.174;18.160;2023-03-14T10:22:32;4.80;;;1.00;;
76228;SDS011;65021;53.174;18.160;2023-03-14T10:25:02;4.50;;;1.60;;
76228;SDS011;65021;53.174;18.160;2023-03-14T10:27:34;4.40;;;1.20;;
76228;SDS011;65021;53.174;18.160;2023-03-14T10:30:04;5.30;;;1.60;;
76228;SDS011;65021;53.174;18.160;2023-03-14T10:32:34;2.80;;;1.10;;
76228;SDS011;65021;53.174;18.160;2023-03-14T10:35:07;3.80;;;1.20;;
76228;SDS011;65021;53.174;18.160;2023-03-14T10:37:56;3.90;;;1.20;;
76228;SDS011;65021;53.174;18.160;2023-03-14T10:40:32;4.90;;;1.50;;
76228;SDS011;65021;53.174;18.160;2023-03-14T10:43:04;4.90;;;1.30;;
76228;SDS011;65021;53.174;18.160;2023-03-14T10:53:42;3.40;;;1.30;;
76228;SDS011;65021;53.174;18.160;2023-03-14T10:56:15;5.50;;;1.50;;
76228;SDS011;65021;53.174;18.160;2023-03-14T10:58:45;5.40;;;1.20;;
76228;SDS011;65021;53.174;18.160;2023-03-14T11:04:24;4.60;;;1.10;;
76228;SDS011;65021;53.174;18.160;2023-03-14T11:07:04;4.30;;;1.00;;
76228;SDS011;65021;53.174;18.160;2023-03-14T11:09:43;3.60;;;1.20;;
76228;SDS011;65021;53.174;18.160;2023-03-14T11:15:14;3.60;;;1.20;;
76228;SDS011;65021;53.174;18.160;2023-03-14T11:20:44;4.70;;;1.50;;
76228;SDS011;65021;53.174;18.160;2023-03-14T11:23:42;3.60;;;1.40;;
76228;SDS011;65021;53.174;18.160;2023-03-14T11:28:57;3.60;;;1.10;;
76228;SDS011;65021;53.174;18.160;2023-03-14T11:31:29;3.20;;;1.00;;
76228;SDS011;65021;53.174;18.160;2023-03-14T11:36:52;3.30;;;0.90;;
76228;SDS011;65021;53.174;18.160;2023-03-14T11:39:26;3.30;;;1.00;;
76228;SDS011;65021;53.174;18.160;2023-03-14T11:42:07;4.10;;;1.50;;
76228;SDS011;65021;53.174;18.160;2023-03-14T11:44:39;5.10;;;1.10;;
76228;SDS011;65021;53.174;18.160;2023-03-14T11:47:08;4.20;;;1.20;;
76228;SDS011;65021;53.174;18.160;2023-03-14T11:52:47;4.70;;;1.50;;
76228;SDS011;65021;53.174;18.160;2023-03-14T11:55:31;5.70;;;1.30;;
76228;SDS011;65021;53.174;18.160;2023-03-14T11:58:08;4.10;;;1.10;;
76228;SDS011;65021;53.174;18.160;2023-03-14T12:00:40;5.10;;;1.30;;
76228;SDS011;65021;53.174;18.160;2023-03-14T12:08:22;3.50;;;1.00;;
76228;SDS011;65021;53.174;18.160;2023-03-14T12:10:58;5.70;;;1.30;;
76228;SDS011;65021;53.174;18.160;2023-03-14T12:13:32;6.00;;;1.50;;
76228;SDS011;65021;53.174;18.160;2023-03-14T12:16:06;4.10;;;1.20;;
76228;SDS011;65021;53.174;18.160;2023-03-14T12:18:46;4.30;;;1.30;;
76228;SDS011;65021;53.174;18.160;2023-03-14T12:21:12;5.80;;;1.30;;
76228;SDS011;65021;53.174;18.160;2023-03-14T12:23:49;7.30;;;1.10;;
76228;SDS011;65021;53.174;18.160;2023-03-14T12:26:20;4.40;;;1.10;;
76228;SDS011;65021;53.174;18.160;2023-03-14T12:47:55;4.40;;;1.30;;
76228;SDS011;65021;53.174;18.160;2023-03-14T12:50:40;5.10;;;1.50;;
76228;SDS011;65021;53.174;18.160;2023-03-14T12:56:11;6.20;;;1.60;;
76228;SDS011;65021;53.174;18.160;2023-03-14T13:01:27;6.00;;;1.90;;
76228;SDS011;65021;53.174;18.160;2023-03-14T13:03:55;6.10;;;2.20;;
76228;SDS011;65021;53.174;18.160;2023-03-14T13:11:56;4.80;;;1.60;;
76228;SDS011;65021;53.174;18.160;2023-03-14T13:14:28;4.90;;;1.60;;
76228;SDS011;65021;53.174;18.160;2023-03-14T13:17:00;6.60;;;1.80;;
76228;SDS011;65021;53.174;18.160;2023-03-14T13:19:27;4.70;;;1.60;;
76228;SDS011;65021;53.174;18.160;2023-03-14T13:21:56;7.30;;;1.90;;
76228;SDS011;65021;53.174;18.160;2023-03-14T13:24:28;3.40;;;1.50;;
76228;SDS011;65021;53.174;18.160;2023-03-14T13:26:59;5.60;;;1.60;;
76228;SDS011;65021;53.174;18.160;2023-03-14T13:29:31;5.90;;;1.70;;
76228;SDS011;65021;53.174;18.160;2023-03-14T13:31:58;8.40;;;1.80;;
76228;SDS011;65021;53.174;18.160;2023-03-14T13:34:30;5.90;;;1.50;;
76228;SDS011;65021;53.174;18.160;2023-03-14T13:36:58;6.20;;;1.80;;
76228;SDS011;65021;53.174;18.160;2023-03-14T13:39:26;5.70;;;1.70;;
76228;SDS011;65021;53.174;18.160;2023-03-14T13:41:58;4.70;;;1.60;;
76228;SDS011;65021;53.174;18.160;2023-03-14T13:44:27;4.90;;;1.80;;
76228;SDS011;65021;53.174;18.160;2023-03-14T13:47:01;5.20;;;1.70;;
76228;SDS011;65021;53.174;18.160;2023-03-14T13:49:29;3.90;;;1.70;;
76228;SDS011;65021;53.174;18.160;2023-03-14T13:52:00;4.10;;;1.20;;
76228;SDS011;65021;53.174;18.160;2023-03-14T13:54:26;5.60;;;1.40;;
76228;SDS011;65021;53.174;18.160;2023-03-14T13:57:00;6.50;;;1.80;;
76228;SDS011;65021;53.174;18.160;2023-03-14T13:59:32;4.70;;;1.60;;
76228;SDS011;65021;53.174;18.160;2023-03-14T14:02:03;6.20;;;1.80;;
76228;SDS011;65021;53.174;18.160;2023-03-14T14:04:38;6.90;;;1.90;;
76228;SDS011;65021;53.174;18.160;2023-03-14T14:07:09;7.40;;;3.20;;
76228;SDS011;65021;53.174;18.160;2023-03-14T14:09:43;5.70;;;1.80;;
76228;SDS011;65021;53.174;18.160;2023-03-14T14:12:23;6.50;;;2.40;;
76228;SDS011;65021;53.174;18.160;2023-03-14T14:14:59;9.70;;;2.00;;
76228;SDS011;65021;53.174;18.160;2023-03-14T14:17:31;5.90;;;1.80;;
76228;SDS011;65021;53.174;18.160;2023-03-14T14:20:05;6.70;;;2.00;;
76228;SDS011;65021;53.174;18.160;2023-03-14T14:22:34;5.30;;;2.10;;
76228;SDS011;65021;53.174;18.160;2023-03-14T14:25:01;3.50;;;1.10;;
76228;SDS011;65021;53.174;18.160;2023-03-14T14:27:35;4.40;;;2.00;;
76228;SDS011;65021;53.174;18.160;2023-03-14T14:30:05;6.40;;;2.00;;
76228;SDS011;65021;53.174;18.160;2023-03-14T14:32:50;6.00;;;1.60;;
76228;SDS011;65021;53.174;18.160;2023-03-14T14:35:33;4.30;;;1.50;;
76228;SDS011;65021;53.174;18.160;2023-03-14T14:38:02;4.40;;;1.20;;
76228;SDS011;65021;53.174;18.160;2023-03-14T14:40:43;4.90;;;1.30;;
76228;SDS011;65021;53.174;18.160;2023-03-14T14:43:12;3.80;;;1.30;;
76228;SDS011;65021;53.174;18.160;2023-03-14T14:45:45;6.00;;;1.90;;
76228;SDS011;65021;53.174;18.160;2023-03-14T14:48:17;6.90;;;1.80;;
76228;SDS011;65021;53.174;18.160;2023-03-14T14:50:56;5.50;;;1.70;;
76228;SDS011;65021;53.174;18.160;2023-03-14T14:53:39;7.30;;;2.10;;
76228;SDS011;65021;53.174;18.160;2023-03-14T14:56:18;7.20;;;1.80;;
76228;SDS011;65021;53.174;18.160;2023-03-14T14:58:48;7.50;;;1.60;;
76228;SDS011;65021;53.174;18.160;2023-03-14T15:01:17;4.70;;;1.50;;
76228;SDS011;65021;53.174;18.160;2023-03-14T15:03:50;5.50;;;1.70;;
76228;SDS011;65021;53.174;18.160;2023-03-14T15:06:18;5.10;;;1.70;;
76228;SDS011;65021;53.174;18.160;2023-03-14T15:08:47;5.30;;;1.50;;
76228;SDS011;65021;53.174;18.160;2023-03-14T15:11:18;5.50;;;1.80;;
76228;SDS011;65021;53.174;18.160;2023-03-14T15:13:46;3.80;;;1.20;;
76228;SDS011;65021;53.174;18.160;2023-03-14T15:16:17;5.80;;;1.50;;
76228;SDS011;65021;53.174;18.160;2023-03-14T15:18:56;7.00;;;1.60;;
76228;SDS011;65021;53.174;18.160;2023-03-14T15:21:24;5.70;;;1.60;;
76228;SDS011;65021;53.174;18.160;2023-03-14T15:23:52;4.40;;;1.10;;
76228;SDS011;65021;53.174;18.160;2023-03-14T15:26:20;4.90;;;1.60;;
76228;SDS011;65021;53.174;18.160;2023-03-14T15:28:49;4.20;;;1.50;;
76228;SDS011;65021;53.174;18.160;2023-03-14T15:31:16;4.00;;;1.50;;
76228;SDS011;65021;53.174;18.160;2023-03-14T15:33:44;5.20;;;1.30;;
76228;SDS011;65021;53.174;18.160;2023-03-14T15:36:25;5.90;;;1.50;;
76228;SDS011;65021;53.174;18.160;2023-03-14T15:38:54;4.00;;;1.30;;
76228;SDS011;65021;53.174;18.160;2023-03-14T15:41:21;3.10;;;1.10;;
76228;SDS011;65021;53.174;18.160;2023-03-14T15:43:49;4.10;;;1.00;;
76228;SDS011;65021;53.174;18.160;2023-03-14T15:46:15;3.30;;;1.00;;
76228;SDS011;65021;53.174;18.160;2023-03-14T15:48:43;5.10;;;1.10;;
76228;SDS011;65021;53.174;18.160;2023-03-14T15:51:14;3.40;;;1.00;;
76228;SDS011;65021;53.174;18.160;2023-03-14T15:53:41;5.40;;;1.10;;
76228;SDS011;65021;53.174;18.160;2023-03-14T15:56:11;3.90;;;1.00;;
76228;SDS011;65021;53.174;18.160;2023-03-14T15:58:39;2.70;;;1.00;;
76228;SDS011;65021;53.174;18.160;2023-03-14T16:01:08;1.70;;;0.50;;
76228;SDS011;65021;53.174;18.160;2023-03-14T16:03:35;5.10;;;1.00;;
76228;SDS011;65021;53.174;18.160;2023-03-14T16:06:02;3.30;;;1.20;;
76228;SDS011;65021;53.174;18.160;2023-03-14T16:08:29;3.30;;;1.00;;